Darstellungsparameter: Aktuell verwendete Einstellungen:
Skalierung der Graphiken ... ?
xyx+y,   Skalierungsfaktor:      Skalierung: Modus: x, Faktor: 1
Darstellungszeitraum ... ?
Vom - - bis: - -   Zeitraum: 09.03.2006 - 09.03.2006
Min/Max/Avg-Anzeige ... ?
Zeige MMA aktuell
Zeige MMA Monat
Zeige MMA alles
Zeige --A aktuell
Zeige --A Monat
Zeige --A alles
Keine MMA-Anzeige
MMA:
Keine MMA-Graphiken
MMA-Basis: 09.03.2006 - 09.03.2006
Quicknavigation für Darstellung... ?
Tage:      1T, 2T, 3T, 5T -1T -2T -3T -5T +1T +2T +3T +5T
Wochen: 1W, 2W, 3W -1W -2W -3W +1W +2W +3W
Monate: 1M, 3M, 6M -1M -3M -6M +1M +3M +6M
Jahre:    1J, 3J, 5J, 10J -1J -3J -5J -10J +1J +3J +5J +10J
Nutze für die Darstellung ... ?
Originaldaten oder Mittelwerte auf ...
Stundenbasis Tagesbasis Wochenbasis
Monatsbasis Jahresbasis      Datenbasis: Original-Daten
Darstellen als:
Statistik (Auto) Statistik J:M      Darstellung:
Zur Graphik,    zurück zur Übersicht aller Sensoren.
 
Tabellarische Datenbersicht: ?
 
Sensor: Nr:Datum:Temp:Feuchte:Taupunkt:
Aussen-T/F 1 09-03-2006 00:01:49 2.5 C 92 % 1.34 C
2 09-03-2006 00:11:49 2.5 C 92 % 1.34 C
3 09-03-2006 00:21:49 2.6 C 92 % 1.43 C
4 09-03-2006 00:31:49 3.2 C 92 % 2.03 C
5 09-03-2006 00:41:49 4.8 C 93 % 3.77 C
6 09-03-2006 00:51:49 5 C 94 % 4.12 C
7 09-03-2006 01:01:49 5.1 C 94 % 4.22 C
8 09-03-2006 01:11:49 5.1 C 94 % 4.22 C
9 09-03-2006 01:21:49 5.4 C 95 % 4.66 C
10 09-03-2006 01:31:49 5.6 C 95 % 4.86 C
11 09-03-2006 01:41:49 5.7 C 95 % 4.96 C
12 09-03-2006 01:51:49 6 C 95 % 5.26 C
13 09-03-2006 02:01:49 5.9 C 95 % 5.16 C
14 09-03-2006 02:11:49 6 C 95 % 5.26 C
15 09-03-2006 02:21:49 6 C 95 % 5.26 C
16 09-03-2006 02:31:49 6 C 95 % 5.26 C
17 09-03-2006 02:41:49 6 C 95 % 5.26 C
18 09-03-2006 02:52:50 6.1 C 95 % 5.36 C
19 09-03-2006 03:02:50 6.1 C 95 % 5.36 C
20 09-03-2006 03:12:51 6.3 C 95 % 5.56 C
21 09-03-2006 03:22:51 6.3 C 95 % 5.56 C
22 09-03-2006 03:32:51 6.4 C 95 % 5.66 C
23 09-03-2006 03:42:51 6.4 C 95 % 5.66 C
24 09-03-2006 03:52:51 6.3 C 95 % 5.56 C
25 09-03-2006 04:02:51 6.3 C 95 % 5.56 C
Sensor: Nr:Datum:Temp:Feuchte:Taupunkt:
Aussen-T/F 26 09-03-2006 04:12:51 6.1 C 95 % 5.36 C
27 09-03-2006 04:22:51 5.8 C 95 % 5.06 C
28 09-03-2006 04:32:51 5.9 C 95 % 5.16 C
29 09-03-2006 04:42:51 6.1 C 95 % 5.36 C
30 09-03-2006 04:52:51 6.5 C 95 % 5.76 C
31 09-03-2006 05:02:51 6.9 C 95 % 6.16 C
32 09-03-2006 05:12:51 6.8 C 95 % 6.06 C
33 09-03-2006 05:22:51 6.8 C 95 % 6.06 C
34 09-03-2006 05:32:51 6.8 C 95 % 6.06 C
35 09-03-2006 05:42:51 6.5 C 95 % 5.76 C
36 09-03-2006 05:52:51 6.8 C 95 % 6.06 C
37 09-03-2006 06:02:51 6.8 C 94 % 5.9 C
38 09-03-2006 06:12:51 6.8 C 94 % 5.9 C
39 09-03-2006 06:22:50 6.8 C 94 % 5.9 C
40 09-03-2006 06:32:51 6.8 C 93 % 5.75 C
41 09-03-2006 06:42:51 6.5 C 92 % 5.3 C
42 09-03-2006 06:52:51 6.5 C 92 % 5.3 C
43 09-03-2006 07:02:51 6.8 C 92 % 5.59 C
44 09-03-2006 07:12:51 7 C 91 % 5.63 C
45 09-03-2006 07:22:51 7 C 90 % 5.48 C
46 09-03-2006 07:32:51 6.9 C 90 % 5.38 C
47 09-03-2006 07:42:51 6.9 C 89 % 5.22 C
48 09-03-2006 07:52:51 7 C 88 % 5.15 C
49 09-03-2006 08:02:51 7.1 C 88 % 5.25 C
50 09-03-2006 08:12:51 7.5 C 88 % 5.64 C
Sensor: Nr:Datum:Temp:Feuchte:Taupunkt:
Aussen-T/F 51 09-03-2006 08:22:51 7.8 C 86 % 5.61 C
52 09-03-2006 08:32:51 8.1 C 83 % 5.39 C
53 09-03-2006 08:42:51 8.2 C 82 % 5.32 C
54 09-03-2006 08:52:51 8.3 C 80 % 5.06 C
55 09-03-2006 09:02:52 8.4 C 79 % 4.98 C
56 09-03-2006 09:12:52 8.5 C 78 % 4.89 C
57 09-03-2006 09:22:51 8.6 C 78 % 4.99 C
58 09-03-2006 09:32:51 8.7 C 78 % 5.08 C
59 09-03-2006 09:42:51 8.9 C 77 % 5.09 C
60 09-03-2006 09:52:51 9 C 76 % 5 C
61 09-03-2006 10:02:51 9 C 76 % 5 C
62 09-03-2006 10:12:52 9.1 C 76 % 5.1 C
63 09-03-2006 10:22:51 9.3 C 75 % 5.1 C
64 09-03-2006 10:32:51 9.5 C 74 % 5.1 C
65 09-03-2006 10:42:51 9.6 C 73 % 5.01 C
66 09-03-2006 10:52:51 9.7 C 72 % 4.9 C
67 09-03-2006 11:02:52 9.7 C 72 % 4.9 C
68 09-03-2006 11:12:52 9.5 C 74 % 5.1 C
69 09-03-2006 11:22:52 9.5 C 74 % 5.1 C
70 09-03-2006 11:32:51 9.6 C 74 % 5.2 C
71 09-03-2006 11:42:52 9.7 C 73 % 5.1 C
72 09-03-2006 11:52:51 9.9 C 73 % 5.29 C
73 09-03-2006 12:02:51 10.5 C 71 % 5.47 C
74 09-03-2006 12:12:51 10.7 C 69 % 5.25 C
75 09-03-2006 12:22:51 10.7 C 68 % 5.04 C
Sensor: Nr:Datum:Temp:Feuchte:Taupunkt:
Aussen-T/F 76 09-03-2006 12:32:52 10.7 C 69 % 5.25 C
77 09-03-2006 12:42:52 10.6 C 67 % 4.74 C
78 09-03-2006 12:52:51 11 C 65 % 4.68 C
79 09-03-2006 13:02:52 11.1 C 64 % 4.56 C
80 09-03-2006 13:12:52 11 C 64 % 4.46 C
81 09-03-2006 13:22:51 11 C 64 % 4.46 C
82 09-03-2006 13:32:51 10.8 C 66 % 4.71 C
83 09-03-2006 13:42:51 10.7 C 65 % 4.4 C
84 09-03-2006 13:52:51 10.8 C 64 % 4.27 C
85 09-03-2006 14:02:51 10.9 C 65 % 4.59 C
86 09-03-2006 14:12:51 10.8 C 65 % 4.49 C
87 09-03-2006 14:22:52 10.8 C 66 % 4.71 C
88 09-03-2006 14:32:52 11 C 65 % 4.68 C
89 09-03-2006 14:42:52 10.9 C 65 % 4.59 C
90 09-03-2006 14:52:52 10.8 C 65 % 4.49 C
91 09-03-2006 15:02:52 10.8 C 65 % 4.49 C
92 09-03-2006 15:12:53 10.6 C 64 % 4.08 C
93 09-03-2006 15:22:52 10.7 C 64 % 4.18 C
94 09-03-2006 15:32:51 10.7 C 63 % 3.95 C
95 09-03-2006 15:42:51 10.5 C 64 % 3.99 C
96 09-03-2006 15:52:51 10.4 C 64 % 3.89 C
97 09-03-2006 16:02:52 10.5 C 64 % 3.99 C
98 09-03-2006 16:12:52 10.3 C 64 % 3.8 C
99 09-03-2006 16:22:52 10.2 C 65 % 3.92 C
100 09-03-2006 16:32:52 10.2 C 64 % 3.7 C
Sensor: Nr:Datum:Temp:Feuchte:Taupunkt:
Aussen-T/F 101 09-03-2006 16:42:52 10.1 C 64 % 3.61 C
102 09-03-2006 16:52:52 10 C 62 % 3.07 C
103 09-03-2006 17:02:52 9.8 C 62 % 2.88 C
104 09-03-2006 17:12:52 9.7 C 61 % 2.55 C
105 09-03-2006 17:22:52 9.6 C 61 % 2.46 C
106 09-03-2006 17:32:52 9.5 C 61 % 2.37 C
107 09-03-2006 17:42:52 9.4 C 61 % 2.27 C
108 09-03-2006 17:52:52 9.3 C 60 % 1.95 C
109 09-03-2006 18:02:52 9.3 C 60 % 1.95 C
110 09-03-2006 18:12:52 9.3 C 62 % 2.4 C
111 09-03-2006 18:22:51 9.1 C 63 % 2.44 C
112 09-03-2006 18:32:52 9 C 63 % 2.35 C
113 09-03-2006 18:42:52 9 C 63 % 2.35 C
114 09-03-2006 18:52:52 8.9 C 65 % 2.69 C
115 09-03-2006 19:02:52 8.8 C 66 % 2.81 C
116 09-03-2006 19:12:53 8.7 C 67 % 2.92 C
117 09-03-2006 19:22:52 8.6 C 67 % 2.83 C
118 09-03-2006 19:32:52 8.5 C 68 % 2.94 C
119 09-03-2006 19:42:52 8.2 C 73 % 3.66 C
120 09-03-2006 19:52:52 7.9 C 79 % 4.49 C
121 09-03-2006 20:02:52 7.6 C 82 % 4.73 C
122 09-03-2006 20:12:52 7.6 C 83 % 4.9 C
123 09-03-2006 20:22:53 7.4 C 84 % 4.88 C
124 09-03-2006 20:32:52 7.4 C 85 % 5.05 C
125 09-03-2006 20:42:52 7.3 C 85 % 4.95 C
Sensor: Nr:Datum:Temp:Feuchte:Taupunkt:
Aussen-T/F 126 09-03-2006 20:52:53 7.3 C 85 % 4.95 C
127 09-03-2006 21:02:52 7.3 C 85 % 4.95 C
128 09-03-2006 21:12:52 7.3 C 85 % 4.95 C
129 09-03-2006 21:22:52 7.4 C 85 % 5.05 C
130 09-03-2006 21:32:52 7.4 C 84 % 4.88 C
131 09-03-2006 21:42:52 7.4 C 84 % 4.88 C
132 09-03-2006 21:52:52 7.3 C 84 % 4.78 C
133 09-03-2006 22:02:53 7.3 C 84 % 4.78 C
134 09-03-2006 22:12:53 7.4 C 84 % 4.88 C
135 09-03-2006 22:22:52 7.3 C 84 % 4.78 C
136 09-03-2006 22:32:52 7.2 C 85 % 4.85 C
137 09-03-2006 22:42:52 7.1 C 86 % 4.92 C
138 09-03-2006 22:52:53 7 C 87 % 4.99 C
139 09-03-2006 23:02:52 7.1 C 88 % 5.25 C
140 09-03-2006 23:12:52 7 C 88 % 5.15 C
141 09-03-2006 23:22:52 7 C 88 % 5.15 C
142 09-03-2006 23:32:53 6.9 C 88 % 5.05 C
143 09-03-2006 23:42:53 6.7 C 88 % 4.86 C
144 09-03-2006 23:52:52 6.8 C 86 % 4.63 C

Legende:
   Min
   Max


Maximal/Minimal-Werte vom 09.03.2006 - 09.03.2006

Sensor Min Max Avg
Temp
(Aussen-T/F)
2.5 °C
09-03-2006  00:01:49
11.1 °C
09-03-2006  13:02:52
8.02 °C
Feuchte
(Aussen-T/F)
60 %
09-03-2006  17:52:52
95 %
09-03-2006  01:21:49
80.03 %
Taupunkt
(Aussen-T/F)
1.34 C
09-03-2006  00:01:49
6.16 C
09-03-2006  05:02:51
4.57 C

Die Daten stammen von einer Davis Vantage Pro 2 Wetter-Station und werden unter Linux mit der Software wview2wettercgi und aufbereitet. Alle Angaben erfolgen ohne Gewähr für ihre Vollständigkeit oder Richtigkeit.
Kontakt: Rainer Krienke krienke@uni-koblenz.de . Meine Webseiten an der Uni Koblenz oder privat.
Version: $Revision: 0.78 $